sensor_id;sensor_type;location;lat;lon;timestamp;P1;durP1;ratioP1;P2;durP2;ratioP2
64065;SDS011;50318;54.760;9.408;2022-10-16T10:40:43;18.15;;;3.55;;
64065;SDS011;50318;54.760;9.408;2022-10-16T10:43:31;14.50;;;3.35;;
64065;SDS011;50318;54.760;9.408;2022-10-16T10:46:05;12.93;;;3.13;;
64065;SDS011;50318;54.760;9.408;2022-10-16T10:48:46;15.05;;;3.38;;
64065;SDS011;50318;54.760;9.408;2022-10-16T10:51:29;11.88;;;2.95;;
64065;SDS011;50318;54.760;9.408;2022-10-16T11:02:15;16.70;;;3.17;;
64065;SDS011;50318;54.760;9.408;2022-10-16T11:05:07;16.85;;;3.22;;
64065;SDS011;50318;54.760;9.408;2022-10-16T11:07:59;14.55;;;3.20;;
64065;SDS011;50318;54.760;9.408;2022-10-16T11:10:27;19.00;;;3.22;;
64065;SDS011;50318;54.760;9.408;2022-10-16T11:12:58;17.05;;;3.70;;
64065;SDS011;50318;54.760;9.408;2022-10-16T11:15:52;15.88;;;2.80;;
64065;SDS011;50318;54.760;9.408;2022-10-16T11:18:30;15.73;;;2.90;;
64065;SDS011;50318;54.760;9.408;2022-10-16T11:21:08;17.00;;;3.60;;
64065;SDS011;50318;54.760;9.408;2022-10-16T11:23:46;10.98;;;2.88;;
64065;SDS011;50318;54.760;9.408;2022-10-16T11:26:29;15.18;;;3.40;;
64065;SDS011;50318;54.760;9.408;2022-10-16T11:28:59;14.27;;;3.38;;
64065;SDS011;50318;54.760;9.408;2022-10-16T11:34:25;12.05;;;2.80;;
64065;SDS011;50318;54.760;9.408;2022-10-16T11:39:47;18.65;;;3.20;;
64065;SDS011;50318;54.760;9.408;2022-10-16T11:42:37;17.27;;;3.45;;
64065;SDS011;50318;54.760;9.408;2022-10-16T11:45:22;14.13;;;2.85;;
64065;SDS011;50318;54.760;9.408;2022-10-16T11:50:39;17.92;;;3.38;;
64065;SDS011;50318;54.760;9.408;2022-10-16T11:53:41;16.95;;;3.17;;
64065;SDS011;50318;54.760;9.408;2022-10-16T11:56:36;14.07;;;4.15;;
64065;SDS011;50318;54.760;9.408;2022-10-16T11:59:29;22.98;;;5.15;;
64065;SDS011;50318;54.760;9.408;2022-10-16T12:04:41;98.28;;;29.35;;
64065;SDS011;50318;54.760;9.408;2022-10-16T12:07:13;132.55;;;40.05;;
64065;SDS011;50318;54.760;9.408;2022-10-16T12:09:44;68.38;;;19.58;;
64065;SDS011;50318;54.760;9.408;2022-10-16T12:15:01;24.85;;;6.63;;
64065;SDS011;50318;54.760;9.408;2022-10-16T12:17:42;15.73;;;4.22;;
64065;SDS011;50318;54.760;9.408;2022-10-16T12:22:50;23.73;;;5.50;;
64065;SDS011;50318;54.760;9.408;2022-10-16T12:25:33;20.35;;;3.90;;
64065;SDS011;50318;54.760;9.408;2022-10-16T12:28:00;23.00;;;4.32;;
64065;SDS011;50318;54.760;9.408;2022-10-16T12:30:30;16.75;;;4.70;;
64065;SDS011;50318;54.760;9.408;2022-10-16T12:35:45;23.30;;;3.97;;
64065;SDS011;50318;54.760;9.408;2022-10-16T12:40:57;17.85;;;4.50;;
64065;SDS011;50318;54.760;9.408;2022-10-16T12:43:26;22.45;;;4.95;;
64065;SDS011;50318;54.760;9.408;2022-10-16T12:48:35;21.25;;;3.88;;
64065;SDS011;50318;54.760;9.408;2022-10-16T12:59:43;20.92;;;3.92;;
64065;SDS011;50318;54.760;9.408;2022-10-16T13:02:38;19.77;;;3.70;;
64065;SDS011;50318;54.760;9.408;2022-10-16T13:05:28;19.90;;;4.07;;
64065;SDS011;50318;54.760;9.408;2022-10-16T13:10:58;21.85;;;4.65;;
64065;SDS011;50318;54.760;9.408;2022-10-16T13:13:39;25.13;;;4.63;;
64065;SDS011;50318;54.760;9.408;2022-10-16T13:18:57;24.52;;;4.32;;
64065;SDS011;50318;54.760;9.408;2022-10-16T13:21:38;19.73;;;3.92;;
64065;SDS011;50318;54.760;9.408;2022-10-16T13:24:18;25.58;;;3.83;;
64065;SDS011;50318;54.760;9.408;2022-10-16T13:29:19;37.88;;;5.45;;
64065;SDS011;50318;54.760;9.408;2022-10-16T13:31:46;23.77;;;4.63;;
64065;SDS011;50318;54.760;9.408;2022-10-16T13:34:19;25.80;;;4.40;;
64065;SDS011;50318;54.760;9.408;2022-10-16T13:36:48;28.35;;;4.60;;
64065;SDS011;50318;54.760;9.408;2022-10-16T13:41:44;20.42;;;4.15;;
64065;SDS011;50318;54.760;9.408;2022-10-16T13:44:12;21.50;;;4.25;;
64065;SDS011;50318;54.760;9.408;2022-10-16T13:46:43;20.50;;;4.13;;
64065;SDS011;50318;54.760;9.408;2022-10-16T13:49:16;26.23;;;4.78;;
64065;SDS011;50318;54.760;9.408;2022-10-16T13:51:53;22.70;;;4.70;;
64065;SDS011;50318;54.760;9.408;2022-10-16T13:54:21;23.48;;;4.18;;
64065;SDS011;50318;54.760;9.408;2022-10-16T13:56:48;22.15;;;4.18;;
64065;SDS011;50318;54.760;9.408;2022-10-16T14:01:52;22.58;;;4.45;;
64065;SDS011;50318;54.760;9.408;2022-10-16T14:04:20;24.10;;;4.07;;
64065;SDS011;50318;54.760;9.408;2022-10-16T14:06:46;29.38;;;4.97;;
64065;SDS011;50318;54.760;9.408;2022-10-16T14:11:54;26.20;;;4.78;;
64065;SDS011;50318;54.760;9.408;2022-10-16T14:14:24;18.40;;;3.75;;
64065;SDS011;50318;54.760;9.408;2022-10-16T14:16:52;26.67;;;4.95;;
64065;SDS011;50318;54.760;9.408;2022-10-16T14:19:28;30.02;;;4.60;;
64065;SDS011;50318;54.760;9.408;2022-10-16T14:21:55;21.80;;;4.00;;
64065;SDS011;50318;54.760;9.408;2022-10-16T14:24:31;24.25;;;4.18;;
64065;SDS011;50318;54.760;9.408;2022-10-16T14:27:32;20.75;;;3.80;;
64065;SDS011;50318;54.760;9.408;2022-10-16T14:32:59;21.05;;;4.10;;
64065;SDS011;50318;54.760;9.408;2022-10-16T14:35:31;27.42;;;4.30;;
64065;SDS011;50318;54.760;9.408;2022-10-16T14:38:00;23.55;;;3.78;;
64065;SDS011;50318;54.760;9.408;2022-10-16T14:40:29;20.33;;;4.00;;
64065;SDS011;50318;54.760;9.408;2022-10-16T14:42:57;19.73;;;3.67;;
64065;SDS011;50318;54.760;9.408;2022-10-16T14:45:27;25.05;;;5.30;;
64065;SDS011;50318;54.760;9.408;2022-10-16T14:47:57;24.80;;;4.60;;
64065;SDS011;50318;54.760;9.408;2022-10-16T14:50:24;20.48;;;3.80;;
64065;SDS011;50318;54.760;9.408;2022-10-16T14:52:50;21.70;;;3.63;;
64065;SDS011;50318;54.760;9.408;2022-10-16T14:55:19;17.80;;;3.63;;
64065;SDS011;50318;54.760;9.408;2022-10-16T14:57:45;16.40;;;3.55;;
64065;SDS011;50318;54.760;9.408;2022-10-16T15:00:20;17.65;;;3.67;;
64065;SDS011;50318;54.760;9.408;2022-10-16T15:02:48;20.27;;;3.47;;
64065;SDS011;50318;54.760;9.408;2022-10-16T15:05:22;20.77;;;3.92;;
64065;SDS011;50318;54.760;9.408;2022-10-16T15:07:50;21.40;;;3.67;;
64065;SDS011;50318;54.760;9.408;2022-10-16T15:10:17;15.38;;;3.13;;
64065;SDS011;50318;54.760;9.408;2022-10-16T15:12:43;13.65;;;3.72;;
64065;SDS011;50318;54.760;9.408;2022-10-16T15:15:15;18.02;;;4.40;;
64065;SDS011;50318;54.760;9.408;2022-10-16T15:17:50;15.15;;;3.15;;
64065;SDS011;50318;54.760;9.408;2022-10-16T15:20:24;22.25;;;3.85;;
64065;SDS011;50318;54.760;9.408;2022-10-16T15:22:51;22.27;;;4.20;;
64065;SDS011;50318;54.760;9.408;2022-10-16T15:28:01;22.00;;;3.75;;
64065;SDS011;50318;54.760;9.408;2022-10-16T15:30:32;18.25;;;4.15;;
64065;SDS011;50318;54.760;9.408;2022-10-16T15:32:58;18.92;;;3.35;;
64065;SDS011;50318;54.760;9.408;2022-10-16T15:35:24;15.13;;;3.63;;
64065;SDS011;50318;54.760;9.408;2022-10-16T15:37:49;18.75;;;4.13;;
64065;SDS011;50318;54.760;9.408;2022-10-16T15:40:16;19.23;;;4.30;;
64065;SDS011;50318;54.760;9.408;2022-10-16T15:42:44;23.45;;;3.70;;
64065;SDS011;50318;54.760;9.408;2022-10-16T15:45:10;19.35;;;4.00;;
64065;SDS011;50318;54.760;9.408;2022-10-16T15:47:41;21.05;;;4.20;;
64065;SDS011;50318;54.760;9.408;2022-10-16T15:50:11;18.67;;;3.70;;
64065;SDS011;50318;54.760;9.408;2022-10-16T15:52:38;19.60;;;4.55;;
64065;SDS011;50318;54.760;9.408;2022-10-16T15:55:11;20.15;;;4.30;;
64065;SDS011;50318;54.760;9.408;2022-10-16T15:57:39;19.55;;;4.70;;
64065;SDS011;50318;54.760;9.408;2022-10-16T16:00:07;21.15;;;4.60;;
64065;SDS011;50318;54.760;9.408;2022-10-16T16:02:37;22.33;;;4.57;;
64065;SDS011;50318;54.760;9.408;2022-10-16T16:05:03;23.42;;;4.22;;
64065;SDS011;50318;54.760;9.408;2022-10-16T16:07:33;15.82;;;3.70;;
64065;SDS011;50318;54.760;9.408;2022-10-16T16:10:02;22.10;;;3.90;;
64065;SDS011;50318;54.760;9.408;2022-10-16T16:12:29;18.35;;;4.13;;
64065;SDS011;50318;54.760;9.408;2022-10-16T16:15:00;22.05;;;4.60;;
64065;SDS011;50318;54.760;9.408;2022-10-16T16:17:26;21.05;;;4.93;;
64065;SDS011;50318;54.760;9.408;2022-10-16T16:19:52;25.20;;;5.00;;
64065;SDS011;50318;54.760;9.408;2022-10-16T16:22:17;20.65;;;3.90;;
64065;SDS011;50318;54.760;9.408;2022-10-16T16:24:46;20.45;;;4.03;;
64065;SDS011;50318;54.760;9.408;2022-10-16T16:27:12;16.35;;;4.25;;
64065;SDS011;50318;54.760;9.408;2022-10-16T16:29:38;23.75;;;4.15;;
64065;SDS011;50318;54.760;9.408;2022-10-16T16:32:24;24.75;;;4.32;;
64065;SDS011;50318;54.760;9.408;2022-10-16T16:34:50;22.92;;;5.00;;
64065;SDS011;50318;54.760;9.408;2022-10-16T16:37:16;21.80;;;4.38;;
64065;SDS011;50318;54.760;9.408;2022-10-16T16:39:42;26.85;;;4.53;;
64065;SDS011;50318;54.760;9.408;2022-10-16T16:42:08;22.92;;;4.45;;
64065;SDS011;50318;54.760;9.408;2022-10-16T16:44:36;25.02;;;4.40;;
64065;SDS011;50318;54.760;9.408;2022-10-16T16:47:02;23.67;;;4.25;;
64065;SDS011;50318;54.760;9.408;2022-10-16T16:49:29;23.13;;;4.50;;
64065;SDS011;50318;54.760;9.408;2022-10-16T16:51:56;27.98;;;5.28;;
64065;SDS011;50318;54.760;9.408;2022-10-16T16:54:24;25.08;;;4.70;;
64065;SDS011;50318;54.760;9.408;2022-10-16T16:56:50;23.10;;;4.57;;
64065;SDS011;50318;54.760;9.408;2022-10-16T16:59:17;26.17;;;4.50;;
64065;SDS011;50318;54.760;9.408;2022-10-16T17:01:47;22.38;;;4.22;;
64065;SDS011;50318;54.760;9.408;2022-10-16T17:04:14;23.83;;;4.85;;
64065;SDS011;50318;54.760;9.408;2022-10-16T17:06:44;26.88;;;4.90;;
64065;SDS011;50318;54.760;9.408;2022-10-16T17:09:10;30.95;;;6.80;;
64065;SDS011;50318;54.760;9.408;2022-10-16T17:11:40;23.70;;;4.90;;
64065;SDS011;50318;54.760;9.408;2022-10-16T17:14:10;33.70;;;8.83;;
64065;SDS011;50318;54.760;9.408;2022-10-16T17:16:36;26.58;;;6.30;;
64065;SDS011;50318;54.760;9.408;2022-10-16T17:19:04;23.20;;;5.60;;
64065;SDS011;50318;54.760;9.408;2022-10-16T17:21:36;21.92;;;4.70;;
64065;SDS011;50318;54.760;9.408;2022-10-16T17:24:02;23.27;;;4.80;;
64065;SDS011;50318;54.760;9.408;2022-10-16T17:26:32;27.10;;;5.80;;
64065;SDS011;50318;54.760;9.408;2022-10-16T17:28:59;27.67;;;5.17;;
64065;SDS011;50318;54.760;9.408;2022-10-16T17:31:27;23.95;;;5.38;;
64065;SDS011;50318;54.760;9.408;2022-10-16T17:33:55;24.45;;;5.28;;
64065;SDS011;50318;54.760;9.408;2022-10-16T17:36:22;22.52;;;4.97;;
64065;SDS011;50318;54.760;9.408;2022-10-16T17:38:48;22.85;;;4.93;;
64065;SDS011;50318;54.760;9.408;2022-10-16T17:41:18;22.00;;;4.88;;
64065;SDS011;50318;54.760;9.408;2022-10-16T17:43:47;27.92;;;5.80;;
64065;SDS011;50318;54.760;9.408;2022-10-16T17:46:13;21.50;;;5.10;;
64065;SDS011;50318;54.760;9.408;2022-10-16T17:49:13;25.57;;;5.70;;
64065;SDS011;50318;54.760;9.408;2022-10-16T17:51:39;23.40;;;6.25;;
64065;SDS011;50318;54.760;9.408;2022-10-16T17:54:05;28.58;;;5.75;;
64065;SDS011;50318;54.760;9.408;2022-10-16T17:56:32;21.90;;;4.40;;
64065;SDS011;50318;54.760;9.408;2022-10-16T17:58:59;23.50;;;4.38;;
64065;SDS011;50318;54.760;9.408;2022-10-16T18:01:26;23.73;;;4.38;;
64065;SDS011;50318;54.760;9.408;2022-10-16T18:03:55;24.15;;;4.93;;
64065;SDS011;50318;54.760;9.408;2022-10-16T18:06:23;18.15;;;4.78;;
64065;SDS011;50318;54.760;9.408;2022-10-16T18:08:52;21.45;;;4.72;;
64065;SDS011;50318;54.760;9.408;2022-10-16T18:11:19;22.55;;;4.85;;
64065;SDS011;50318;54.760;9.408;2022-10-16T18:13:46;21.30;;;5.13;;
64065;SDS011;50318;54.760;9.408;2022-10-16T18:16:13;20.77;;;6.00;;
64065;SDS011;50318;54.760;9.408;2022-10-16T18:18:41;19.80;;;5.37;;
64065;SDS011;50318;54.760;9.408;2022-10-16T18:21:13;26.98;;;5.50;;
64065;SDS011;50318;54.760;9.408;2022-10-16T18:23:43;21.55;;;4.45;;
64065;SDS011;50318;54.760;9.408;2022-10-16T18:26:09;22.75;;;4.43;;
64065;SDS011;50318;54.760;9.408;2022-10-16T18:28:37;25.55;;;4.35;;
64065;SDS011;50318;54.760;9.408;2022-10-16T18:31:04;20.48;;;3.58;;
64065;SDS011;50318;54.760;9.408;2022-10-16T18:33:32;22.33;;;4.40;;
64065;SDS011;50318;54.760;9.408;2022-10-16T18:36:07;22.38;;;4.70;;
64065;SDS011;50318;54.760;9.408;2022-10-16T18:38:38;22.70;;;5.07;;
64065;SDS011;50318;54.760;9.408;2022-10-16T18:41:05;22.75;;;5.53;;
64065;SDS011;50318;54.760;9.408;2022-10-16T18:43:32;21.48;;;5.82;;
64065;SDS011;50318;54.760;9.408;2022-10-16T18:46:03;24.40;;;5.65;;
64065;SDS011;50318;54.760;9.408;2022-10-16T18:48:31;20.83;;;5.20;;
64065;SDS011;50318;54.760;9.408;2022-10-16T18:53:35;24.15;;;5.38;;
64065;SDS011;50318;54.760;9.408;2022-10-16T18:56:02;19.52;;;4.40;;
64065;SDS011;50318;54.760;9.408;2022-10-16T18:58:29;22.88;;;4.32;;
64065;SDS011;50318;54.760;9.408;2022-10-16T19:00:54;22.67;;;4.00;;
64065;SDS011;50318;54.760;9.408;2022-10-16T19:03:26;19.52;;;4.32;;
64065;SDS011;50318;54.760;9.408;2022-10-16T19:05:52;25.27;;;4.53;;
64065;SDS011;50318;54.760;9.408;2022-10-16T19:08:18;17.75;;;4.07;;
64065;SDS011;50318;54.760;9.408;2022-10-16T19:10:44;22.67;;;4.47;;
64065;SDS011;50318;54.760;9.408;2022-10-16T19:13:12;22.83;;;4.35;;
64065;SDS011;50318;54.760;9.408;2022-10-16T19:15:41;18.38;;;4.43;;
64065;SDS011;50318;54.760;9.408;2022-10-16T19:18:07;24.73;;;5.00;;
64065;SDS011;50318;54.760;9.408;2022-10-16T19:20:33;21.42;;;5.50;;
64065;SDS011;50318;54.760;9.408;2022-10-16T19:22:59;20.65;;;5.00;;
64065;SDS011;50318;54.760;9.408;2022-10-16T19:25:25;20.00;;;4.50;;
64065;SDS011;50318;54.760;9.408;2022-10-16T19:27:52;22.63;;;4.43;;
64065;SDS011;50318;54.760;9.408;2022-10-16T19:30:19;16.60;;;4.00;;
64065;SDS011;50318;54.760;9.408;2022-10-16T19:32:47;19.98;;;4.57;;
64065;SDS011;50318;54.760;9.408;2022-10-16T19:35:40;19.42;;;4.00;;
64065;SDS011;50318;54.760;9.408;2022-10-16T19:38:05;24.35;;;4.47;;
64065;SDS011;50318;54.760;9.408;2022-10-16T19:40:34;20.30;;;4.22;;
64065;SDS011;50318;54.760;9.408;2022-10-16T19:43:00;23.93;;;4.83;;
64065;SDS011;50318;54.760;9.408;2022-10-16T19:45:26;21.93;;;5.23;;
64065;SDS011;50318;54.760;9.408;2022-10-16T19:47:52;19.15;;;5.15;;
64065;SDS011;50318;54.760;9.408;2022-10-16T19:50:20;20.35;;;4.97;;
64065;SDS011;50318;54.760;9.408;2022-10-16T19:52:46;24.15;;;5.45;;
64065;SDS011;50318;54.760;9.408;2022-10-16T19:55:12;19.10;;;5.60;;
64065;SDS011;50318;54.760;9.408;2022-10-16T19:57:40;21.88;;;5.47;;
64065;SDS011;50318;54.760;9.408;2022-10-16T20:00:06;24.30;;;5.40;;
64065;SDS011;50318;54.760;9.408;2022-10-16T20:02:34;24.08;;;5.30;;
64065;SDS011;50318;54.760;9.408;2022-10-16T20:05:00;22.40;;;5.32;;
64065;SDS011;50318;54.760;9.408;2022-10-16T20:07:26;24.97;;;4.97;;
64065;SDS011;50318;54.760;9.408;2022-10-16T20:09:52;18.87;;;4.20;;
64065;SDS011;50318;54.760;9.408;2022-10-16T20:12:18;20.77;;;4.50;;
64065;SDS011;50318;54.760;9.408;2022-10-16T20:14:43;21.88;;;4.55;;
64065;SDS011;50318;54.760;9.408;2022-10-16T20:17:09;19.48;;;4.00;;
64065;SDS011;50318;54.760;9.408;2022-10-16T20:19:36;20.80;;;4.63;;
64065;SDS011;50318;54.760;9.408;2022-10-16T20:22:03;17.57;;;4.40;;
64065;SDS011;50318;54.760;9.408;2022-10-16T20:24:29;20.20;;;4.55;;
64065;SDS011;50318;54.760;9.408;2022-10-16T20:26:55;23.00;;;5.05;;
64065;SDS011;50318;54.760;9.408;2022-10-16T20:29:21;23.65;;;4.90;;
64065;SDS011;50318;54.760;9.408;2022-10-16T20:31:46;22.85;;;4.25;;
64065;SDS011;50318;54.760;9.408;2022-10-16T20:34:38;20.13;;;4.03;;
64065;SDS011;50318;54.760;9.408;2022-10-16T20:37:04;23.33;;;4.38;;
64065;SDS011;50318;54.760;9.408;2022-10-16T20:39:29;24.63;;;4.63;;
64065;SDS011;50318;54.760;9.408;2022-10-16T20:41:58;21.63;;;4.53;;
64065;SDS011;50318;54.760;9.408;2022-10-16T20:44:23;22.57;;;5.10;;
64065;SDS011;50318;54.760;9.408;2022-10-16T20:46:53;23.03;;;5.10;;
64065;SDS011;50318;54.760;9.408;2022-10-16T20:49:19;23.88;;;5.20;;
64065;SDS011;50318;54.760;9.408;2022-10-16T20:51:45;28.33;;;7.82;;
64065;SDS011;50318;54.760;9.408;2022-10-16T20:54:14;24.95;;;7.90;;
64065;SDS011;50318;54.760;9.408;2022-10-16T20:56:40;26.55;;;5.93;;
64065;SDS011;50318;54.760;9.408;2022-10-16T20:59:07;23.90;;;5.43;;
64065;SDS011;50318;54.760;9.408;2022-10-16T21:01:38;20.85;;;4.82;;
64065;SDS011;50318;54.760;9.408;2022-10-16T21:04:05;22.13;;;5.00;;
64065;SDS011;50318;54.760;9.408;2022-10-16T21:06:32;20.95;;;4.30;;
64065;SDS011;50318;54.760;9.408;2022-10-16T21:09:00;24.00;;;4.55;;
64065;SDS011;50318;54.760;9.408;2022-10-16T21:11:31;22.00;;;4.72;;
64065;SDS011;50318;54.760;9.408;2022-10-16T21:14:00;22.77;;;4.30;;
64065;SDS011;50318;54.760;9.408;2022-10-16T21:16:27;22.17;;;4.78;;
64065;SDS011;50318;54.760;9.408;2022-10-16T21:18:53;26.42;;;4.57;;
64065;SDS011;50318;54.760;9.408;2022-10-16T21:23:46;23.25;;;4.60;;
64065;SDS011;50318;54.760;9.408;2022-10-16T21:26:13;23.73;;;5.10;;
64065;SDS011;50318;54.760;9.408;2022-10-16T21:28:39;23.88;;;4.72;;
64065;SDS011;50318;54.760;9.408;2022-10-16T21:31:15;17.02;;;3.83;;
64065;SDS011;50318;54.760;9.408;2022-10-16T21:33:46;22.05;;;4.00;;
64065;SDS011;50318;54.760;9.408;2022-10-16T21:38:40;17.50;;;4.00;;
64065;SDS011;50318;54.760;9.408;2022-10-16T21:43:45;16.13;;;3.80;;
64065;SDS011;50318;54.760;9.408;2022-10-16T21:46:11;17.20;;;3.93;;
64065;SDS011;50318;54.760;9.408;2022-10-16T21:48:37;18.85;;;4.57;;
64065;SDS011;50318;54.760;9.408;2022-10-16T21:51:04;19.67;;;4.13;;
64065;SDS011;50318;54.760;9.408;2022-10-16T21:53:30;18.92;;;4.60;;
64065;SDS011;50318;54.760;9.408;2022-10-16T21:55:56;19.65;;;4.40;;
64065;SDS011;50318;54.760;9.408;2022-10-16T21:58:22;19.08;;;4.15;;
64065;SDS011;50318;54.760;9.408;2022-10-16T22:00:47;20.13;;;4.43;;
64065;SDS011;50318;54.760;9.408;2022-10-16T22:03:13;17.13;;;4.32;;
64065;SDS011;50318;54.760;9.408;2022-10-16T22:05:39;18.38;;;4.25;;
64065;SDS011;50318;54.760;9.408;2022-10-16T22:08:24;23.98;;;4.82;;
64065;SDS011;50318;54.760;9.408;2022-10-16T22:10:50;20.58;;;4.85;;
64065;SDS011;50318;54.760;9.408;2022-10-16T22:13:15;18.80;;;4.53;;
64065;SDS011;50318;54.760;9.408;2022-10-16T22:15:47;17.80;;;4.30;;
64065;SDS011;50318;54.760;9.408;2022-10-16T22:18:16;19.85;;;4.45;;
64065;SDS011;50318;54.760;9.408;2022-10-16T22:20:46;20.80;;;4.63;;
64065;SDS011;50318;54.760;9.408;2022-10-16T22:23:13;20.58;;;4.53;;
64065;SDS011;50318;54.760;9.408;2022-10-16T22:25:39;19.67;;;3.90;;
64065;SDS011;50318;54.760;9.408;2022-10-16T22:28:07;19.10;;;4.50;;
64065;SDS011;50318;54.760;9.408;2022-10-16T22:30:34;17.02;;;3.97;;
64065;SDS011;50318;54.760;9.408;2022-10-16T22:33:00;19.93;;;4.17;;
64065;SDS011;50318;54.760;9.408;2022-10-16T22:35:26;18.38;;;4.07;;
64065;SDS011;50318;54.760;9.408;2022-10-16T22:37:52;19.05;;;4.07;;
64065;SDS011;50318;54.760;9.408;2022-10-16T22:40:18;20.55;;;4.60;;
64065;SDS011;50318;54.760;9.408;2022-10-16T22:42:43;17.02;;;4.22;;
64065;SDS011;50318;54.760;9.408;2022-10-16T22:45:09;21.08;;;4.47;;
64065;SDS011;50318;54.760;9.408;2022-10-16T22:47:36;22.65;;;4.63;;
64065;SDS011;50318;54.760;9.408;2022-10-16T22:50:02;21.23;;;4.50;;
64065;SDS011;50318;54.760;9.408;2022-10-16T22:52:30;19.83;;;4.25;;
64065;SDS011;50318;54.760;9.408;2022-10-16T22:54:56;18.73;;;4.17;;
64065;SDS011;50318;54.760;9.408;2022-10-16T22:57:22;21.63;;;4.10;;
64065;SDS011;50318;54.760;9.408;2022-10-16T22:59:48;18.75;;;4.38;;
64065;SDS011;50318;54.760;9.408;2022-10-16T23:02:14;21.55;;;4.30;;
64065;SDS011;50318;54.760;9.408;2022-10-16T23:04:39;21.17;;;4.40;;
64065;SDS011;50318;54.760;9.408;2022-10-16T23:07:05;18.70;;;3.95;;
64065;SDS011;50318;54.760;9.408;2022-10-16T23:09:31;22.00;;;4.03;;
64065;SDS011;50318;54.760;9.408;2022-10-16T23:11:59;19.50;;;3.83;;
64065;SDS011;50318;54.760;9.408;2022-10-16T23:14:25;20.92;;;4.05;;
64065;SDS011;50318;54.760;9.408;2022-10-16T23:16:51;15.80;;;3.67;;
64065;SDS011;50318;54.760;9.408;2022-10-16T23:19:19;20.52;;;3.88;;
64065;SDS011;50318;54.760;9.408;2022-10-16T23:21:44;16.52;;;3.70;;
64065;SDS011;50318;54.760;9.408;2022-10-16T23:24:10;17.10;;;3.72;;
64065;SDS011;50318;54.760;9.408;2022-10-16T23:26:36;13.23;;;3.45;;
64065;SDS011;50318;54.760;9.408;2022-10-16T23:29:02;17.00;;;3.60;;
64065;SDS011;50318;54.760;9.408;2022-10-16T23:31:30;19.27;;;4.00;;
64065;SDS011;50318;54.760;9.408;2022-10-16T23:33:56;17.77;;;3.90;;
64065;SDS011;50318;54.760;9.408;2022-10-16T23:36:22;17.23;;;3.57;;
64065;SDS011;50318;54.760;9.408;2022-10-16T23:38:48;16.55;;;3.40;;
64065;SDS011;50318;54.760;9.408;2022-10-16T23:41:15;17.98;;;3.83;;
64065;SDS011;50318;54.760;9.408;2022-10-16T23:43:43;18.10;;;3.70;;
64065;SDS011;50318;54.760;9.408;2022-10-16T23:46:10;14.00;;;3.67;;
64065;SDS011;50318;54.760;9.408;2022-10-16T23:48:37;23.37;;;3.77;;
64065;SDS011;50318;54.760;9.408;2022-10-16T23:51:03;17.23;;;4.10;;
64065;SDS011;50318;54.760;9.408;2022-10-16T23:53:29;15.83;;;3.87;;
64065;SDS011;50318;54.760;9.408;2022-10-16T23:56:01;22.55;;;4.03;;
64065;SDS011;50318;54.760;9.408;2022-10-16T23:58:26;16.52;;;3.60;;
